Urb Maria del Carmen, Puerto Rico
Current Conditions -  °F | °C
As of 7:56 PM on Sunday 21 Dec 2014 (Local Time) from TJSJ Reporting Station
Few Clouds Few Clouds  
Wind Chill: 78°   Ceiling: Unl
Heat Index: 80°   Visibility: 10mi
Dew Point: 67°   Wind: 8mph
Humidity: 68%   Direction: 80°E
Pressure: 30.06"   Gusts: NA
Location:  18.3429°N, 66.3176°W
Report Text: TJSJ 212356Z 08007KT 10SM FEW032 26/19 A3006 RMK AO2 SLP178 60002 T02560194 10289 20256 53013
Loading
Personal Weather Stations






























Interactive Weather Map New forecast layout! Learn more

10-Day Weather Forecast

Advertisements
Track Severe Weather on mobile